createdAt,value
2022-11-12T00:00:51.144Z,79027.78
2022-11-12T00:03:18.000Z,79045.69
2022-11-12T00:05:45.593Z,79059.59
2022-11-12T00:08:12.547Z,79067.56
2022-11-12T00:10:39.371Z,79051.66
2022-11-12T00:13:05.917Z,79057.63
2022-11-12T00:15:32.467Z,79069.56
2022-11-12T00:17:59.379Z,79083.47
2022-11-12T00:20:26.066Z,79081.47
2022-11-12T00:22:52.619Z,79087.44
2022-11-12T00:25:19.115Z,79095.41
2022-11-12T00:27:45.691Z,79057.63
2022-11-12T00:30:12.522Z,79077.50
2022-11-12T00:32:39.135Z,79059.59
2022-11-12T00:35:11.028Z,79071.53
2022-11-12T00:37:40.089Z,79093.41
2022-11-12T00:40:07.430Z,79095.41
2022-11-12T00:42:33.933Z,79103.34
2022-11-12T00:45:00.553Z,79085.47
2022-11-12T00:47:27.051Z,79097.38
2022-11-12T00:49:53.581Z,79063.59
2022-11-12T00:52:20.103Z,79061.59
2022-11-12T00:54:46.835Z,79065.56
2022-11-12T00:57:13.340Z,79091.44
2022-11-12T00:59:39.914Z,79111.31
2022-11-12T01:02:06.406Z,79109.31
2022-11-12T01:04:33.038Z,79105.34
2022-11-12T01:06:59.666Z,79109.31
2022-11-12T01:09:26.369Z,79109.31
2022-11-12T01:11:52.866Z,79111.31
2022-11-12T01:14:19.355Z,79117.28
2022-11-12T01:16:47.011Z,79109.31
2022-11-12T01:19:13.858Z,79111.31
2022-11-12T01:21:42.946Z,79107.34
2022-11-12T01:24:10.084Z,79099.38
2022-11-12T01:26:37.401Z,79075.50
2022-11-12T01:29:04.882Z,79085.47
2022-11-12T01:31:34.454Z,79091.44
2022-11-12T01:34:03.919Z,79083.47
2022-11-12T01:36:39.298Z,79089.44
2022-11-12T01:39:08.252Z,79085.47
2022-11-12T01:41:37.347Z,79087.44
2022-11-12T01:44:24.895Z,79097.38
2022-11-12T01:47:00.393Z,79085.47
2022-11-12T01:49:57.569Z,79085.47
2022-11-12T01:52:45.229Z,79081.47
2022-11-12T01:55:15.723Z,79117.28
2022-11-12T01:57:48.684Z,79099.38
2022-11-12T02:00:15.870Z,79107.34
2022-11-12T02:02:46.413Z,79113.31
2022-11-12T02:05:14.209Z,79109.31
2022-11-12T02:07:44.287Z,79115.28
2022-11-12T02:10:10.872Z,79115.28
2022-11-12T02:12:56.850Z,79119.25
2022-11-12T02:15:23.475Z,79127.22
2022-11-12T02:17:50.114Z,79131.19
2022-11-12T02:20:16.648Z,79123.25
2022-11-12T02:22:43.167Z,79131.19
2022-11-12T02:25:14.223Z,79135.19
2022-11-12T02:27:40.805Z,79139.16
2022-11-12T02:30:07.831Z,79143.13
2022-11-12T02:32:34.357Z,79141.13
2022-11-12T02:35:00.879Z,79145.13
2022-11-12T02:37:27.400Z,79145.13
2022-11-12T02:39:53.912Z,79163.00
2022-11-12T02:42:20.416Z,79168.97
2022-11-12T02:44:47.248Z,79170.97
2022-11-12T02:47:13.751Z,79178.94
2022-11-12T02:49:40.261Z,79186.88
2022-11-12T02:52:08.866Z,79182.91
2022-11-12T02:54:35.361Z,79172.97
2022-11-12T02:57:01.863Z,79184.88
2022-11-12T02:59:28.355Z,79186.88
2022-11-12T03:01:54.904Z,79202.78
2022-11-12T03:04:21.451Z,79198.81
2022-11-12T03:06:48.138Z,79196.81
2022-11-12T03:09:14.769Z,79218.69
2022-11-12T03:11:41.263Z,79218.69
2022-11-12T03:14:07.751Z,79222.69
2022-11-12T03:16:34.234Z,79218.69
2022-11-12T03:19:00.715Z,79230.63
2022-11-12T03:21:27.236Z,79228.63
2022-11-12T03:23:53.739Z,79218.69
2022-11-12T03:26:20.234Z,79236.59
2022-11-12T03:28:46.757Z,79238.59
2022-11-12T03:31:13.626Z,79224.66
2022-11-12T03:33:40.464Z,79236.59
2022-11-12T03:36:07.548Z,79242.56
2022-11-12T03:38:34.054Z,79236.59
2022-11-12T03:41:00.781Z,79242.56
2022-11-12T03:43:27.283Z,79244.56
2022-11-12T03:45:53.798Z,79250.53
2022-11-12T03:48:20.319Z,79238.59
2022-11-12T03:50:46.799Z,79244.56
2022-11-12T03:53:13.371Z,79242.56
2022-11-12T03:55:39.987Z,79246.53
2022-11-12T03:58:06.493Z,79250.53
2022-11-12T04:00:33.067Z,79260.47
2022-11-12T04:03:00.145Z,79266.44
2022-11-12T04:05:46.077Z,79250.53
2022-11-12T04:08:39.018Z,79264.44
2022-11-12T04:11:13.103Z,79246.53
2022-11-12T04:13:47.428Z,79248.53
2022-11-12T04:16:38.184Z,79254.50
2022-11-12T04:19:24.536Z,79246.53
2022-11-12T04:21:58.258Z,79248.53
2022-11-12T04:24:48.999Z,79252.50
2022-11-12T04:27:26.522Z,79234.59
2022-11-12T04:30:12.512Z,79250.53
2022-11-12T04:33:01.302Z,79264.44
2022-11-12T04:35:27.971Z,79274.38
2022-11-12T04:37:55.193Z,79276.38
2022-11-12T04:40:45.387Z,79276.38
2022-11-12T04:43:33.315Z,79290.28
2022-11-12T04:46:00.831Z,79288.31
2022-11-12T04:48:27.731Z,79302.22
2022-11-12T04:50:59.814Z,79278.38
2022-11-12T04:53:27.547Z,79296.25
2022-11-12T04:55:56.009Z,79298.25
2022-11-12T04:58:23.267Z,79318.13
2022-11-12T05:00:51.037Z,79318.13
2022-11-12T05:03:18.551Z,79320.13
2022-11-12T05:05:45.074Z,79336.03
2022-11-12T05:08:11.578Z,79322.13
2022-11-12T05:10:38.069Z,79314.16
2022-11-12T05:13:04.579Z,79302.22
2022-11-12T05:15:31.083Z,79318.13
2022-11-12T05:17:57.842Z,79320.13
2022-11-12T05:20:24.390Z,79334.03
2022-11-12T05:23:05.531Z,79340.00
2022-11-12T05:25:35.449Z,79322.13
2022-11-12T05:28:01.944Z,79342.00
2022-11-12T05:30:28.443Z,79359.91
2022-11-12T05:32:54.949Z,79357.91
2022-11-12T05:35:21.466Z,79365.88
2022-11-12T05:37:47.946Z,79361.88
2022-11-12T05:40:14.502Z,79371.84
2022-11-12T05:42:40.998Z,79369.84
2022-11-12T05:45:08.238Z,79367.84
2022-11-12T05:47:34.764Z,79361.88
2022-11-12T05:50:01.244Z,79371.84
2022-11-12T05:52:27.721Z,79375.81
2022-11-12T05:54:54.211Z,79377.81
2022-11-12T05:57:20.695Z,79375.81
2022-11-12T05:59:47.179Z,79381.78
2022-11-12T06:02:13.752Z,79381.78
2022-11-12T06:04:40.378Z,79381.78
2022-11-12T06:07:06.909Z,79357.91
2022-11-12T06:09:33.432Z,79377.81
2022-11-12T06:12:02.470Z,79373.81
2022-11-12T06:14:28.942Z,79381.78
2022-11-12T06:16:55.457Z,79401.66
2022-11-12T06:19:21.962Z,79409.63
2022-11-12T06:21:49.876Z,79389.72
2022-11-12T06:24:16.855Z,79417.56
2022-11-12T06:26:43.362Z,79431.50
2022-11-12T06:29:09.858Z,79425.53
2022-11-12T06:31:36.335Z,79445.41
2022-11-12T06:34:03.258Z,79451.38
2022-11-12T06:36:29.908Z,79435.47
2022-11-12T06:38:56.456Z,79425.53
2022-11-12T06:41:22.975Z,79425.53
2022-11-12T06:43:49.549Z,79437.47
2022-11-12T06:46:17.499Z,79443.44
2022-11-12T06:48:44.091Z,79437.47
2022-11-12T06:51:21.219Z,79445.41
2022-11-12T06:53:48.724Z,79427.53
2022-11-12T06:56:16.188Z,79411.59
2022-11-12T06:58:43.450Z,79433.50
2022-11-12T07:01:13.461Z,79429.50
2022-11-12T07:03:41.917Z,79443.44
2022-11-12T07:06:13.387Z,79449.41
2022-11-12T07:08:40.671Z,79433.50
2022-11-12T07:11:07.815Z,79441.44
2022-11-12T07:13:36.005Z,79427.53
2022-11-12T07:16:04.841Z,79421.56
2022-11-12T07:18:32.805Z,79421.56
2022-11-12T07:21:01.074Z,79417.56
2022-11-12T07:23:29.750Z,79411.59
2022-11-12T07:26:02.045Z,79385.75
2022-11-12T07:28:29.712Z,79393.72
2022-11-12T07:31:02.142Z,79395.69
2022-11-12T07:33:30.191Z,79393.72
2022-11-12T07:36:04.493Z,79407.63
2022-11-12T07:38:32.475Z,79389.72
2022-11-12T07:41:07.626Z,79379.78
2022-11-12T07:43:36.117Z,79357.91
2022-11-12T07:46:10.361Z,79373.81
2022-11-12T07:48:38.211Z,79369.84
2022-11-12T07:51:25.598Z,79355.91
2022-11-12T07:53:58.928Z,79347.97
2022-11-12T07:56:27.680Z,79332.06
2022-11-12T07:58:54.354Z,79322.13
2022-11-12T08:01:31.911Z,79312.16
2022-11-12T08:04:03.466Z,79302.22
2022-11-12T08:06:31.649Z,79284.31
2022-11-12T08:09:02.595Z,79282.34
2022-11-12T08:11:29.274Z,79260.47
2022-11-12T08:13:55.806Z,79252.50
2022-11-12T08:16:22.558Z,79250.53
2022-11-12T08:18:49.408Z,79218.69
2022-11-12T08:21:17.301Z,79210.75
2022-11-12T08:23:44.249Z,79216.72
2022-11-12T08:26:17.061Z,79196.81
2022-11-12T08:28:43.723Z,79182.91
2022-11-12T08:31:12.942Z,79182.91
2022-11-12T08:33:40.025Z,79170.97
2022-11-12T08:36:10.010Z,79139.16
2022-11-12T08:38:37.202Z,79143.13
2022-11-12T08:41:12.089Z,79133.19
2022-11-12T08:43:39.961Z,79109.31
2022-11-12T08:46:06.520Z,79099.38
2022-11-12T08:48:34.494Z,79085.47
2022-11-12T08:51:03.288Z,79087.44
2022-11-12T08:53:30.042Z,79069.56
2022-11-12T08:55:57.114Z,79065.56
2022-11-12T08:58:25.127Z,79043.69
2022-11-12T09:00:52.323Z,79021.81
2022-11-12T09:03:22.028Z,79009.88
2022-11-12T09:05:49.370Z,79011.88
2022-11-12T09:08:22.389Z,79009.88
2022-11-12T09:10:49.773Z,78974.09
2022-11-12T09:13:18.357Z,78976.09
2022-11-12T09:15:45.940Z,78962.16
2022-11-12T09:18:18.099Z,78952.22
2022-11-12T09:20:46.136Z,78944.28
2022-11-12T09:23:17.891Z,78950.22
2022-11-12T09:25:45.072Z,78934.31
2022-11-12T09:28:13.123Z,78922.41
2022-11-12T09:30:43.942Z,78934.31
2022-11-12T09:33:10.435Z,78916.44
2022-11-12T09:35:36.928Z,78908.47
2022-11-12T09:38:03.417Z,78888.59
2022-11-12T09:40:53.126Z,78876.66
2022-11-12T09:43:32.682Z,78878.66
2022-11-12T09:46:26.763Z,78864.72
2022-11-12T09:49:01.893Z,78854.78
2022-11-12T09:51:32.316Z,78856.78
2022-11-12T09:54:04.366Z,78834.91
2022-11-12T09:56:31.109Z,78830.91
2022-11-12T09:58:57.726Z,78805.06
2022-11-12T10:01:48.284Z,78791.16
2022-11-12T10:04:20.962Z,78767.28
2022-11-12T10:06:59.700Z,78761.31
2022-11-12T10:09:40.376Z,78745.41
2022-11-12T10:12:33.890Z,78731.50
2022-11-12T10:15:57.718Z,78699.69
2022-11-12T10:18:38.955Z,78647.97
2022-11-12T10:21:36.618Z,78624.13
2022-11-12T10:24:07.825Z,78616.16
2022-11-12T10:26:35.046Z,78570.44
2022-11-12T10:29:07.930Z,78542.59
2022-11-12T10:31:34.403Z,78544.59
2022-11-12T10:34:21.444Z,78548.56
2022-11-12T10:37:00.289Z,78532.66
2022-11-12T10:39:32.950Z,78502.84
2022-11-12T10:42:16.644Z,78496.88
2022-11-12T10:44:44.231Z,78478.97
2022-11-12T10:47:21.659Z,78461.09
2022-11-12T10:50:10.289Z,78467.06
2022-11-12T10:52:37.275Z,78445.19
2022-11-12T10:55:28.270Z,78453.13
2022-11-12T10:58:16.605Z,78439.22
2022-11-12T11:01:03.256Z,78451.16
2022-11-12T11:03:44.751Z,78439.22
2022-11-12T11:06:14.358Z,78439.22
2022-11-12T11:08:42.471Z,78443.19
2022-11-12T11:11:28.806Z,78427.28
2022-11-12T11:13:57.846Z,78417.34
2022-11-12T11:16:27.460Z,78419.31
2022-11-12T11:19:00.181Z,78395.47
2022-11-12T11:21:48.269Z,78369.63
2022-11-12T11:24:35.674Z,78391.50
2022-11-12T11:27:35.572Z,78395.47
2022-11-12T11:30:18.486Z,78377.56
2022-11-12T11:32:51.150Z,78375.59
2022-11-12T11:35:17.604Z,78371.63
2022-11-12T11:37:58.646Z,78357.69
2022-11-12T11:40:33.461Z,78349.75
2022-11-12T11:43:11.748Z,78361.66
2022-11-12T11:46:10.038Z,78377.56
2022-11-12T11:48:48.750Z,78369.63
2022-11-12T11:51:25.926Z,78357.69
2022-11-12T11:54:20.714Z,78359.69
2022-11-12T11:56:55.870Z,78333.84
2022-11-12T11:59:37.447Z,78335.81
2022-11-12T12:02:22.596Z,78335.81
2022-11-12T12:05:06.615Z,78327.88
2022-11-12T12:07:54.189Z,78327.88
2022-11-12T12:10:40.211Z,78323.91
2022-11-12T12:13:44.134Z,78329.84
2022-11-12T12:16:31.306Z,78327.88
2022-11-12T12:19:31.971Z,78323.91
2022-11-12T12:22:01.449Z,78351.72
2022-11-12T12:24:50.343Z,78341.78
2022-11-12T12:27:41.424Z,78343.78
2022-11-12T12:30:27.678Z,78323.91
2022-11-12T12:32:57.566Z,78315.94
2022-11-12T12:35:30.823Z,78319.91
2022-11-12T12:38:45.616Z,78341.78
2022-11-12T12:41:35.368Z,78335.81
2022-11-12T12:44:06.957Z,78335.81
2022-11-12T12:46:40.637Z,78319.91
2022-11-12T12:49:10.962Z,78308.00
2022-11-12T12:51:37.464Z,78317.94
2022-11-12T12:54:05.147Z,78317.94
2022-11-12T12:56:31.628Z,78319.91
2022-11-12T12:59:03.614Z,78311.97
2022-11-12T13:01:34.227Z,78294.06
2022-11-12T13:04:08.832Z,78304.00
2022-11-12T13:06:51.848Z,78304.00
2022-11-12T13:09:18.306Z,78317.94
2022-11-12T13:12:03.502Z,78296.06
2022-11-12T13:14:36.434Z,78323.91
2022-11-12T13:17:09.155Z,78319.91
2022-11-12T13:19:36.906Z,78325.88
2022-11-12T13:22:18.718Z,78327.88
2022-11-12T13:25:16.974Z,78349.75
2022-11-12T13:27:43.429Z,78343.78
2022-11-12T13:30:13.043Z,78343.78
2022-11-12T13:32:42.556Z,78343.78
2022-11-12T13:35:12.092Z,78347.75
2022-11-12T13:37:56.199Z,78341.78
2022-11-12T13:40:33.617Z,78347.75
2022-11-12T13:43:15.867Z,78355.72
2022-11-12T13:45:51.300Z,78359.69
2022-11-12T13:48:30.890Z,78367.63
2022-11-12T13:51:01.467Z,78363.66
2022-11-12T13:53:31.029Z,78375.59
2022-11-12T13:55:57.631Z,78381.56
2022-11-12T13:58:33.070Z,78383.53
2022-11-12T14:01:05.125Z,78399.44
2022-11-12T14:03:41.966Z,78405.41
2022-11-12T14:06:16.751Z,78419.31
2022-11-12T14:08:57.251Z,78421.31
2022-11-12T14:11:51.082Z,78427.28
2022-11-12T14:14:26.658Z,78433.25
2022-11-12T14:17:26.887Z,78443.19
2022-11-12T14:20:08.670Z,78451.16
2022-11-12T14:22:45.513Z,78457.09
2022-11-12T14:25:19.184Z,78461.09
2022-11-12T14:27:47.566Z,78471.03
2022-11-12T14:30:23.397Z,78482.94
2022-11-12T14:32:58.933Z,78490.91
2022-11-12T14:35:25.386Z,78500.84
2022-11-12T14:37:55.988Z,78510.78
2022-11-12T14:40:25.010Z,78516.75
2022-11-12T14:42:52.906Z,78518.75
2022-11-12T14:45:22.016Z,78530.69
2022-11-12T14:47:50.941Z,78530.69
2022-11-12T14:50:37.366Z,78550.56
2022-11-12T14:53:24.669Z,78560.50
2022-11-12T14:55:53.889Z,78554.53
2022-11-12T14:58:22.880Z,78574.41
2022-11-12T15:00:52.370Z,78602.25
2022-11-12T15:03:24.687Z,78602.25
2022-11-12T15:06:03.461Z,78614.19
2022-11-12T15:08:35.414Z,78614.19
2022-11-12T15:11:21.897Z,78610.22
2022-11-12T15:13:50.626Z,78626.13
2022-11-12T15:16:29.551Z,78642.03
2022-11-12T15:19:03.495Z,78651.97
2022-11-12T15:21:30.239Z,78661.91
2022-11-12T15:24:11.754Z,78677.81
2022-11-12T15:26:45.130Z,78695.72
2022-11-12T15:29:11.609Z,78703.66
2022-11-12T15:31:47.311Z,78715.59
2022-11-12T15:34:33.818Z,78723.53
2022-11-12T15:37:05.804Z,78735.47
2022-11-12T15:39:40.142Z,78739.44
2022-11-12T15:42:16.561Z,78745.41
2022-11-12T15:44:44.270Z,78765.31
2022-11-12T15:47:29.410Z,78767.28
2022-11-12T15:50:01.396Z,78779.22
2022-11-12T15:52:28.010Z,78779.22
2022-11-12T15:54:54.730Z,78785.19
2022-11-12T15:57:28.402Z,78787.19
2022-11-12T16:00:07.553Z,78785.19
2022-11-12T16:02:35.017Z,78803.09
2022-11-12T16:05:01.799Z,78805.06
2022-11-12T16:07:28.286Z,78817.00
2022-11-12T16:09:54.880Z,78815.00
2022-11-12T16:12:21.667Z,78826.94
2022-11-12T16:14:48.265Z,78824.97
2022-11-12T16:17:17.642Z,78824.97
2022-11-12T16:19:44.211Z,78832.91
2022-11-12T16:22:13.731Z,78836.88
2022-11-12T16:24:41.449Z,78840.88
2022-11-12T16:27:18.092Z,78848.81
2022-11-12T16:29:44.600Z,78850.81
2022-11-12T16:32:14.013Z,78852.78
2022-11-12T16:34:40.701Z,78860.75
2022-11-12T16:37:11.841Z,78868.69
2022-11-12T16:39:38.420Z,78882.63
2022-11-12T16:42:05.060Z,78886.59
2022-11-12T16:44:31.533Z,78888.59
2022-11-12T16:46:58.042Z,78900.53
2022-11-12T16:49:26.083Z,78912.44
2022-11-12T16:51:52.562Z,78916.44
2022-11-12T16:54:19.616Z,78914.44
2022-11-12T16:56:46.183Z,78920.41
2022-11-12T16:59:14.629Z,78916.44
2022-11-12T17:01:41.226Z,78910.47
2022-11-12T17:04:08.837Z,78912.44
2022-11-12T17:06:40.850Z,78930.34
2022-11-12T17:09:10.156Z,78930.34
2022-11-12T17:11:37.115Z,78944.28
2022-11-12T17:14:05.735Z,78940.28
2022-11-12T17:16:32.580Z,78950.22
2022-11-12T17:19:01.643Z,78950.22
2022-11-12T17:21:28.607Z,78948.25
2022-11-12T17:23:56.977Z,78956.19
2022-11-12T17:26:23.806Z,78956.19
2022-11-12T17:28:54.024Z,78970.13
2022-11-12T17:31:26.298Z,78966.16
2022-11-12T17:33:53.731Z,78974.09
2022-11-12T17:36:22.916Z,78984.03
2022-11-12T17:38:54.044Z,78972.09
2022-11-12T17:41:20.571Z,78978.06
2022-11-12T17:43:47.379Z,78986.03
2022-11-12T17:46:15.030Z,78988.00
2022-11-12T17:48:41.781Z,78995.97
2022-11-12T17:51:11.328Z,78999.94
2022-11-12T17:53:38.857Z,79015.84
2022-11-12T17:56:07.309Z,79025.81
2022-11-12T17:58:33.964Z,79039.72
2022-11-12T18:01:16.492Z,79035.75
2022-11-12T18:03:45.187Z,79041.72
2022-11-12T18:06:16.565Z,79045.69
2022-11-12T18:08:43.912Z,79061.59
2022-11-12T18:11:12.506Z,79047.69
2022-11-12T18:13:42.263Z,79063.59
2022-11-12T18:16:21.071Z,79079.50
2022-11-12T18:18:48.212Z,79083.47
2022-11-12T18:21:15.266Z,79083.47
2022-11-12T18:23:47.954Z,79087.44
2022-11-12T18:26:18.154Z,79093.41
2022-11-12T18:28:50.200Z,79091.44
2022-11-12T18:31:20.415Z,79105.34
2022-11-12T18:33:48.121Z,79095.41
2022-11-12T18:36:21.037Z,79107.34
2022-11-12T18:42:32.519Z,79119.25
2022-11-12T18:44:59.026Z,79117.28
2022-11-12T18:47:25.512Z,79121.25
2022-11-12T18:49:52.052Z,79127.22
2022-11-12T18:52:19.603Z,79127.22
2022-11-12T18:54:46.099Z,79125.22
2022-11-12T18:57:12.620Z,79093.41
2022-11-12T18:59:49.678Z,79109.31
2022-11-12T19:02:16.993Z,79109.31
2022-11-12T19:04:50.846Z,79111.31
2022-11-12T19:07:25.524Z,79089.44
2022-11-12T19:10:02.965Z,79097.38
2022-11-12T19:12:39.639Z,79071.53
2022-11-12T19:15:09.177Z,79067.56
2022-11-12T19:17:52.809Z,79047.69
2022-11-12T19:20:19.380Z,79061.59
2022-11-12T19:22:45.985Z,79063.59
2022-11-12T19:25:19.383Z,79023.81
2022-11-12T19:27:46.201Z,79041.72
2022-11-12T19:30:13.278Z,79043.69
2022-11-12T19:32:40.835Z,79025.81
2022-11-12T19:35:07.962Z,79025.81
2022-11-12T19:37:34.866Z,79023.81
2022-11-12T19:40:01.600Z,79021.81
2022-11-12T19:42:28.293Z,79015.84
2022-11-12T19:44:54.786Z,79043.69
2022-11-12T19:47:21.471Z,79039.72
2022-11-12T19:49:47.985Z,79039.72
2022-11-12T19:52:14.468Z,79031.75
2022-11-12T19:54:40.934Z,79027.78
2022-11-12T19:57:10.854Z,79035.75
2022-11-12T19:59:39.895Z,79017.84
2022-11-12T20:02:11.415Z,79017.84
2022-11-12T20:04:37.992Z,78999.94
2022-11-12T20:07:04.739Z,79005.91
2022-11-12T20:09:32.088Z,79019.84
2022-11-12T20:11:58.561Z,79019.84
2022-11-12T20:14:25.128Z,79013.88
2022-11-12T20:16:51.716Z,79017.84
2022-11-12T20:19:18.333Z,79017.84
2022-11-12T20:21:44.882Z,79037.72
2022-11-12T20:24:22.090Z,79033.75
2022-11-12T20:26:48.625Z,79025.81
2022-11-12T20:29:15.182Z,79017.84
2022-11-12T20:31:42.293Z,79039.72
2022-11-12T20:34:10.767Z,79027.78
2022-11-12T20:36:38.604Z,78999.94
2022-11-12T20:39:05.165Z,78997.97
2022-11-12T20:41:31.986Z,78992.00
2022-11-12T20:44:00.435Z,78984.03
2022-11-12T20:46:27.823Z,78976.09
2022-11-12T20:48:54.895Z,78966.16
2022-11-12T20:51:26.192Z,78950.22
2022-11-12T20:53:58.880Z,78954.22
2022-11-12T20:56:29.019Z,78946.25
2022-11-12T20:58:56.137Z,78930.34
2022-11-12T21:01:25.176Z,78918.41
2022-11-12T21:03:52.108Z,78904.50
2022-11-12T21:06:21.468Z,78904.50
2022-11-12T21:08:52.535Z,78908.47
2022-11-12T21:11:21.790Z,78904.50
2022-11-12T21:13:53.415Z,78890.56
2022-11-12T21:16:20.006Z,78884.59
2022-11-12T21:18:46.648Z,78880.63
2022-11-12T21:21:15.741Z,78854.78
2022-11-12T21:23:44.067Z,78858.75
2022-11-12T21:26:15.017Z,78852.78
2022-11-12T21:28:46.911Z,78858.75
2022-11-12T21:31:35.543Z,78860.75
2022-11-12T21:34:04.559Z,78832.91
2022-11-12T21:36:32.562Z,78848.81
2022-11-12T21:38:59.210Z,78840.88
2022-11-12T21:41:27.538Z,78828.94
2022-11-12T21:43:54.495Z,78813.03
2022-11-12T21:46:29.529Z,78824.97
2022-11-12T21:48:56.840Z,78822.97
2022-11-12T21:51:26.152Z,78811.03
2022-11-12T21:54:00.780Z,78813.03
2022-11-12T21:56:28.515Z,78805.06
2022-11-12T21:59:00.460Z,78801.09
2022-11-12T22:01:29.491Z,78801.09
2022-11-12T22:03:57.831Z,78799.09
2022-11-12T22:06:29.689Z,78793.13
2022-11-12T22:08:57.444Z,78801.09
2022-11-12T22:11:25.366Z,78781.22
2022-11-12T22:13:51.911Z,78791.16
2022-11-12T22:16:24.721Z,78771.28
2022-11-12T22:18:53.607Z,78775.25
2022-11-12T22:21:39.537Z,78739.44
2022-11-12T22:24:07.127Z,78767.28
2022-11-12T22:26:33.671Z,78745.41
2022-11-12T22:29:00.507Z,78763.31
2022-11-12T22:31:29.792Z,78749.41
2022-11-12T22:33:58.287Z,78753.38
2022-11-12T22:36:27.058Z,78711.63
2022-11-12T22:38:54.890Z,78719.56
2022-11-12T22:41:27.049Z,78731.50
2022-11-12T22:44:01.352Z,78721.56
2022-11-12T22:46:30.800Z,78713.59
2022-11-12T22:48:57.484Z,78717.59
2022-11-12T22:51:26.453Z,78693.72
2022-11-12T22:53:54.748Z,78701.66
2022-11-12T22:56:21.733Z,78705.66
2022-11-12T22:58:48.505Z,78707.63
2022-11-12T23:01:24.499Z,78711.63
2022-11-12T23:03:52.556Z,78699.69
2022-11-12T23:06:19.234Z,78715.59
2022-11-12T23:08:45.941Z,78711.63
2022-11-12T23:11:15.691Z,78681.78
2022-11-12T23:13:42.454Z,78683.78
2022-11-12T23:16:15.330Z,78675.81
2022-11-12T23:18:42.603Z,78669.84
2022-11-12T23:21:12.155Z,78679.81
2022-11-12T23:23:38.779Z,78683.78
2022-11-12T23:26:14.687Z,78665.88
2022-11-12T23:28:41.410Z,78673.84
2022-11-12T23:31:16.141Z,78683.78
2022-11-12T23:33:47.026Z,78675.81
2022-11-12T23:36:13.770Z,78675.81
2022-11-12T23:38:40.854Z,78651.97
2022-11-12T23:41:08.015Z,78649.97
2022-11-12T23:43:34.568Z,78661.91
2022-11-12T23:46:01.128Z,78636.06
2022-11-12T23:48:28.181Z,78628.09
2022-11-12T23:51:06.919Z,78636.06
2022-11-12T23:53:34.777Z,78634.06
2022-11-12T23:56:01.919Z,78651.97
2022-11-12T23:58:29.081Z,78616.16
